sensor_id;sensor_type;location;lat;lon;timestamp;temperature;humidity
12254;DHT22;6189;52.526;13.390;2023-06-14T00:02:37;20.70;63.60
12254;DHT22;6189;52.526;13.390;2023-06-14T00:05:22;20.70;63.40
12254;DHT22;6189;52.526;13.390;2023-06-14T00:08:08;20.70;63.70
12254;DHT22;6189;52.526;13.390;2023-06-14T00:10:55;20.70;64.10
12254;DHT22;6189;52.526;13.390;2023-06-14T00:13:40;20.70;63.70
12254;DHT22;6189;52.526;13.390;2023-06-14T00:16:27;20.60;63.70
12254;DHT22;6189;52.526;13.390;2023-06-14T00:19:12;20.60;64.00
12254;DHT22;6189;52.526;13.390;2023-06-14T00:21:57;20.60;64.30
12254;DHT22;6189;52.526;13.390;2023-06-14T00:24:42;20.60;64.70
12254;DHT22;6189;52.526;13.390;2023-06-14T00:27:29;20.60;64.70
12254;DHT22;6189;52.526;13.390;2023-06-14T00:30:14;20.50;65.10
12254;DHT22;6189;52.526;13.390;2023-06-14T00:33:01;20.40;64.70
12254;DHT22;6189;52.526;13.390;2023-06-14T00:35:46;20.60;65.30
12254;DHT22;6189;52.526;13.390;2023-06-14T00:38:32;20.50;65.20
12254;DHT22;6189;52.526;13.390;2023-06-14T00:41:17;20.40;65.60
12254;DHT22;6189;52.526;13.390;2023-06-14T00:44:04;20.50;65.90
12254;DHT22;6189;52.526;13.390;2023-06-14T00:46:50;20.40;66.10
12254;DHT22;6189;52.526;13.390;2023-06-14T00:49:35;20.40;66.10
12254;DHT22;6189;52.526;13.390;2023-06-14T00:52:20;20.40;66.00
12254;DHT22;6189;52.526;13.390;2023-06-14T00:55:06;20.40;66.30
12254;DHT22;6189;52.526;13.390;2023-06-14T00:57:53;20.40;66.00
12254;DHT22;6189;52.526;13.390;2023-06-14T01:00:40;20.40;66.20
12254;DHT22;6189;52.526;13.390;2023-06-14T01:03:26;20.40;66.50
12254;DHT22;6189;52.526;13.390;2023-06-14T01:06:15;20.40;66.70
12254;DHT22;6189;52.526;13.390;2023-06-14T01:09:13;20.40;66.80
12254;DHT22;6189;52.526;13.390;2023-06-14T01:12:02;20.40;66.80
12254;DHT22;6189;52.526;13.390;2023-06-14T01:14:49;20.40;67.20
12254;DHT22;6189;52.526;13.390;2023-06-14T01:17:36;20.40;67.00
12254;DHT22;6189;52.526;13.390;2023-06-14T01:20:28;20.40;67.50
12254;DHT22;6189;52.526;13.390;2023-06-14T01:23:14;20.30;67.90
12254;DHT22;6189;52.526;13.390;2023-06-14T01:26:01;20.30;67.90
12254;DHT22;6189;52.526;13.390;2023-06-14T01:28:46;20.30;68.10
12254;DHT22;6189;52.526;13.390;2023-06-14T01:31:33;20.30;68.20
12254;DHT22;6189;52.526;13.390;2023-06-14T01:34:25;20.20;68.80
12254;DHT22;6189;52.526;13.390;2023-06-14T01:37:11;20.20;68.90
12254;DHT22;6189;52.526;13.390;2023-06-14T01:39:59;20.20;69.00
12254;DHT22;6189;52.526;13.390;2023-06-14T01:42:44;20.10;68.80
12254;DHT22;6189;52.526;13.390;2023-06-14T01:45:31;20.10;69.10
12254;DHT22;6189;52.526;13.390;2023-06-14T01:48:16;20.10;69.00
12254;DHT22;6189;52.526;13.390;2023-06-14T01:51:02;20.10;68.70
12254;DHT22;6189;52.526;13.390;2023-06-14T01:53:47;20.10;68.30
12254;DHT22;6189;52.526;13.390;2023-06-14T01:56:34;20.20;69.10
12254;DHT22;6189;52.526;13.390;2023-06-14T01:59:20;20.20;68.80
12254;DHT22;6189;52.526;13.390;2023-06-14T02:02:05;20.20;68.50
12254;DHT22;6189;52.526;13.390;2023-06-14T02:04:50;20.20;68.80
12254;DHT22;6189;52.526;13.390;2023-06-14T02:07:36;20.10;68.80
12254;DHT22;6189;52.526;13.390;2023-06-14T02:10:21;20.10;69.30
12254;DHT22;6189;52.526;13.390;2023-06-14T02:13:08;20.00;69.40
12254;DHT22;6189;52.526;13.390;2023-06-14T02:15:53;20.10;69.50
12254;DHT22;6189;52.526;13.390;2023-06-14T02:18:39;20.10;69.70
12254;DHT22;6189;52.526;13.390;2023-06-14T02:21:24;20.10;69.70
12254;DHT22;6189;52.526;13.390;2023-06-14T02:24:09;20.00;69.80
12254;DHT22;6189;52.526;13.390;2023-06-14T02:26:55;20.00;70.00
12254;DHT22;6189;52.526;13.390;2023-06-14T02:29:41;20.00;70.20
12254;DHT22;6189;52.526;13.390;2023-06-14T02:32:27;20.00;70.20
12254;DHT22;6189;52.526;13.390;2023-06-14T02:35:12;20.00;70.20
12254;DHT22;6189;52.526;13.390;2023-06-14T02:37:58;20.00;70.00
12254;DHT22;6189;52.526;13.390;2023-06-14T02:40:44;19.90;70.30
12254;DHT22;6189;52.526;13.390;2023-06-14T02:43:31;19.90;70.50
12254;DHT22;6189;52.526;13.390;2023-06-14T02:46:17;19.90;70.30
12254;DHT22;6189;52.526;13.390;2023-06-14T02:49:03;19.90;70.70
12254;DHT22;6189;52.526;13.390;2023-06-14T02:51:49;19.80;70.90
12254;DHT22;6189;52.526;13.390;2023-06-14T02:54:34;19.80;70.80
12254;DHT22;6189;52.526;13.390;2023-06-14T02:57:20;19.70;71.20
12254;DHT22;6189;52.526;13.390;2023-06-14T03:00:05;19.70;71.60
12254;DHT22;6189;52.526;13.390;2023-06-14T03:02:55;19.70;71.30
12254;DHT22;6189;52.526;13.390;2023-06-14T03:05:41;19.70;71.30
12254;DHT22;6189;52.526;13.390;2023-06-14T03:08:29;19.70;71.30
12254;DHT22;6189;52.526;13.390;2023-06-14T03:11:15;19.70;71.00
12254;DHT22;6189;52.526;13.390;2023-06-14T03:14:04;19.70;71.60
12254;DHT22;6189;52.526;13.390;2023-06-14T03:16:52;19.70;71.20
12254;DHT22;6189;52.526;13.390;2023-06-14T03:19:41;19.70;71.60
12254;DHT22;6189;52.526;13.390;2023-06-14T03:22:27;19.70;71.30
12254;DHT22;6189;52.526;13.390;2023-06-14T03:25:12;19.70;71.80
12254;DHT22;6189;52.526;13.390;2023-06-14T03:27:59;19.60;72.10
12254;DHT22;6189;52.526;13.390;2023-06-14T03:30:44;19.60;72.30
12254;DHT22;6189;52.526;13.390;2023-06-14T03:33:29;19.60;72.30
12254;DHT22;6189;52.526;13.390;2023-06-14T03:36:16;19.60;72.10
12254;DHT22;6189;52.526;13.390;2023-06-14T03:39:02;19.60;72.50
12254;DHT22;6189;52.526;13.390;2023-06-14T03:41:47;19.60;72.60
12254;DHT22;6189;52.526;13.390;2023-06-14T03:44:34;19.60;72.30
12254;DHT22;6189;52.526;13.390;2023-06-14T03:47:19;19.50;72.50
12254;DHT22;6189;52.526;13.390;2023-06-14T03:50:05;19.50;72.50
12254;DHT22;6189;52.526;13.390;2023-06-14T03:52:52;19.60;72.90
12254;DHT22;6189;52.526;13.390;2023-06-14T03:55:38;19.60;72.70
12254;DHT22;6189;52.526;13.390;2023-06-14T03:58:23;19.60;72.60
12254;DHT22;6189;52.526;13.390;2023-06-14T04:01:09;19.60;72.90
12254;DHT22;6189;52.526;13.390;2023-06-14T04:03:56;19.60;72.70
12254;DHT22;6189;52.526;13.390;2023-06-14T04:06:42;19.60;72.70
12254;DHT22;6189;52.526;13.390;2023-06-14T04:09:28;19.60;72.60
12254;DHT22;6189;52.526;13.390;2023-06-14T04:12:14;19.60;73.10
12254;DHT22;6189;52.526;13.390;2023-06-14T04:14:59;19.60;73.10
12254;DHT22;6189;52.526;13.390;2023-06-14T04:17:45;19.60;73.40
12254;DHT22;6189;52.526;13.390;2023-06-14T04:20:30;19.60;73.30
12254;DHT22;6189;52.526;13.390;2023-06-14T04:23:17;19.60;73.20
12254;DHT22;6189;52.526;13.390;2023-06-14T04:26:04;19.70;73.30
12254;DHT22;6189;52.526;13.390;2023-06-14T04:28:49;19.70;73.00
12254;DHT22;6189;52.526;13.390;2023-06-14T04:31:34;19.70;72.80
12254;DHT22;6189;52.526;13.390;2023-06-14T04:34:21;19.70;72.70
12254;DHT22;6189;52.526;13.390;2023-06-14T04:37:08;19.80;73.00
12254;DHT22;6189;52.526;13.390;2023-06-14T04:39:54;19.80;72.90
12254;DHT22;6189;52.526;13.390;2023-06-14T04:42:41;19.80;73.20
12254;DHT22;6189;52.526;13.390;2023-06-14T04:45:30;19.80;73.20
12254;DHT22;6189;52.526;13.390;2023-06-14T04:48:16;19.80;73.00
12254;DHT22;6189;52.526;13.390;2023-06-14T04:51:02;19.90;72.90
12254;DHT22;6189;52.526;13.390;2023-06-14T04:53:48;19.90;72.70
12254;DHT22;6189;52.526;13.390;2023-06-14T04:56:33;19.90;72.90
12254;DHT22;6189;52.526;13.390;2023-06-14T04:59:20;19.90;73.20
12254;DHT22;6189;52.526;13.390;2023-06-14T05:02:06;20.00;73.10
12254;DHT22;6189;52.526;13.390;2023-06-14T05:04:52;20.00;72.80
12254;DHT22;6189;52.526;13.390;2023-06-14T05:07:38;20.00;72.80
12254;DHT22;6189;52.526;13.390;2023-06-14T05:10:24;20.00;72.80
12254;DHT22;6189;52.526;13.390;2023-06-14T05:13:09;20.00;73.10
12254;DHT22;6189;52.526;13.390;2023-06-14T05:15:56;20.10;73.10
12254;DHT22;6189;52.526;13.390;2023-06-14T05:18:42;20.10;72.90
12254;DHT22;6189;52.526;13.390;2023-06-14T05:21:27;20.10;72.90
12254;DHT22;6189;52.526;13.390;2023-06-14T05:24:12;20.10;72.50
12254;DHT22;6189;52.526;13.390;2023-06-14T05:26:58;20.10;72.90
12254;DHT22;6189;52.526;13.390;2023-06-14T05:29:43;20.10;73.00
12254;DHT22;6189;52.526;13.390;2023-06-14T05:32:29;20.10;73.00
12254;DHT22;6189;52.526;13.390;2023-06-14T05:35:15;20.10;72.70
12254;DHT22;6189;52.526;13.390;2023-06-14T05:38:01;20.10;72.90
12254;DHT22;6189;52.526;13.390;2023-06-14T05:40:46;20.20;72.70
12254;DHT22;6189;52.526;13.390;2023-06-14T05:43:32;20.20;73.00
12254;DHT22;6189;52.526;13.390;2023-06-14T05:46:17;20.30;72.70
12254;DHT22;6189;52.526;13.390;2023-06-14T05:49:07;20.30;72.80
12254;DHT22;6189;52.526;13.390;2023-06-14T05:51:53;20.20;73.40
12254;DHT22;6189;52.526;13.390;2023-06-14T05:54:38;20.30;73.50
12254;DHT22;6189;52.526;13.390;2023-06-14T05:57:25;20.20;73.50
12254;DHT22;6189;52.526;13.390;2023-06-14T06:00:11;20.30;73.60
12254;DHT22;6189;52.526;13.390;2023-06-14T06:02:58;20.30;73.00
12254;DHT22;6189;52.526;13.390;2023-06-14T06:05:44;20.40;73.10
12254;DHT22;6189;52.526;13.390;2023-06-14T06:08:30;20.40;73.40
12254;DHT22;6189;52.526;13.390;2023-06-14T06:11:16;20.40;73.10
12254;DHT22;6189;52.526;13.390;2023-06-14T06:14:01;20.40;73.40
12254;DHT22;6189;52.526;13.390;2023-06-14T06:16:46;20.40;73.50
12254;DHT22;6189;52.526;13.390;2023-06-14T06:19:32;20.40;73.60
12254;DHT22;6189;52.526;13.390;2023-06-14T06:22:18;20.40;73.20
12254;DHT22;6189;52.526;13.390;2023-06-14T06:25:04;20.50;73.20
12254;DHT22;6189;52.526;13.390;2023-06-14T06:27:50;20.50;73.20
12254;DHT22;6189;52.526;13.390;2023-06-14T06:30:35;20.50;73.50
12254;DHT22;6189;52.526;13.390;2023-06-14T06:33:21;20.50;73.30
12254;DHT22;6189;52.526;13.390;2023-06-14T06:36:06;20.60;73.30
12254;DHT22;6189;52.526;13.390;2023-06-14T06:38:53;20.60;73.30
12254;DHT22;6189;52.526;13.390;2023-06-14T06:41:38;20.60;73.80
12254;DHT22;6189;52.526;13.390;2023-06-14T06:44:23;20.60;73.20
12254;DHT22;6189;52.526;13.390;2023-06-14T06:47:09;20.60;73.30
12254;DHT22;6189;52.526;13.390;2023-06-14T06:49:55;20.60;73.80
12254;DHT22;6189;52.526;13.390;2023-06-14T06:52:40;20.60;73.40
12254;DHT22;6189;52.526;13.390;2023-06-14T06:55:27;20.60;72.90
12254;DHT22;6189;52.526;13.390;2023-06-14T06:58:13;20.60;73.30
12254;DHT22;6189;52.526;13.390;2023-06-14T07:00:58;20.70;73.30
12254;DHT22;6189;52.526;13.390;2023-06-14T07:03:44;20.70;73.30
12254;DHT22;6189;52.526;13.390;2023-06-14T07:06:29;20.70;73.60
12254;DHT22;6189;52.526;13.390;2023-06-14T07:09:14;20.80;74.00
12254;DHT22;6189;52.526;13.390;2023-06-14T07:12:01;20.80;74.40
12254;DHT22;6189;52.526;13.390;2023-06-14T07:14:46;20.80;74.00
12254;DHT22;6189;52.526;13.390;2023-06-14T07:17:32;20.90;73.70
12254;DHT22;6189;52.526;13.390;2023-06-14T07:20:17;20.90;73.60
12254;DHT22;6189;52.526;13.390;2023-06-14T07:23:02;20.90;73.60
12254;DHT22;6189;52.526;13.390;2023-06-14T07:25:48;20.90;73.60
12254;DHT22;6189;52.526;13.390;2023-06-14T07:28:35;20.90;74.50
12254;DHT22;6189;52.526;13.390;2023-06-14T07:31:20;21.00;75.00
12254;DHT22;6189;52.526;13.390;2023-06-14T07:34:06;21.00;74.70
12254;DHT22;6189;52.526;13.390;2023-06-14T07:36:51;21.00;75.00
12254;DHT22;6189;52.526;13.390;2023-06-14T07:39:38;21.00;74.40
12254;DHT22;6189;52.526;13.390;2023-06-14T07:42:23;21.10;74.70
12254;DHT22;6189;52.526;13.390;2023-06-14T07:45:11;21.20;74.70
12254;DHT22;6189;52.526;13.390;2023-06-14T07:47:57;21.20;75.60
12254;DHT22;6189;52.526;13.390;2023-06-14T07:50:42;21.30;75.00
12254;DHT22;6189;52.526;13.390;2023-06-14T07:53:28;21.40;75.30
12254;DHT22;6189;52.526;13.390;2023-06-14T07:56:14;21.50;74.40
12254;DHT22;6189;52.526;13.390;2023-06-14T07:58:59;21.60;73.50
12254;DHT22;6189;52.526;13.390;2023-06-14T08:01:46;21.60;73.90
12254;DHT22;6189;52.526;13.390;2023-06-14T08:04:32;21.70;73.90
12254;DHT22;6189;52.526;13.390;2023-06-14T08:07:17;21.80;73.50
12254;DHT22;6189;52.526;13.390;2023-06-14T08:10:03;21.80;73.30
12254;DHT22;6189;52.526;13.390;2023-06-14T08:12:48;21.80;73.10
12254;DHT22;6189;52.526;13.390;2023-06-14T08:15:34;21.80;72.90
12254;DHT22;6189;52.526;13.390;2023-06-14T08:18:21;21.90;72.60
12254;DHT22;6189;52.526;13.390;2023-06-14T08:21:06;21.90;72.50
12254;DHT22;6189;52.526;13.390;2023-06-14T08:23:52;21.90;72.70
12254;DHT22;6189;52.526;13.390;2023-06-14T08:26:37;22.00;72.10
12254;DHT22;6189;52.526;13.390;2023-06-14T08:29:23;22.00;72.20
12254;DHT22;6189;52.526;13.390;2023-06-14T08:32:08;22.00;71.40
12254;DHT22;6189;52.526;13.390;2023-06-14T08:34:56;22.20;72.10
12254;DHT22;6189;52.526;13.390;2023-06-14T08:37:41;22.10;70.60
12254;DHT22;6189;52.526;13.390;2023-06-14T08:40:26;22.10;70.70
12254;DHT22;6189;52.526;13.390;2023-06-14T08:43:12;22.10;70.80
12254;DHT22;6189;52.526;13.390;2023-06-14T08:45:58;22.30;70.50
12254;DHT22;6189;52.526;13.390;2023-06-14T08:48:44;22.40;70.10
12254;DHT22;6189;52.526;13.390;2023-06-14T08:51:32;22.50;70.50
12254;DHT22;6189;52.526;13.390;2023-06-14T08:54:18;22.50;69.40
12254;DHT22;6189;52.526;13.390;2023-06-14T08:57:05;22.60;69.90
12254;DHT22;6189;52.526;13.390;2023-06-14T08:59:50;22.60;69.40
12254;DHT22;6189;52.526;13.390;2023-06-14T09:02:37;22.70;69.30
12254;DHT22;6189;52.526;13.390;2023-06-14T09:05:27;22.60;69.40
12254;DHT22;6189;52.526;13.390;2023-06-14T09:08:14;22.60;69.40
12254;DHT22;6189;52.526;13.390;2023-06-14T09:11:00;22.60;68.70
12254;DHT22;6189;52.526;13.390;2023-06-14T09:13:46;22.70;67.20
12254;DHT22;6189;52.526;13.390;2023-06-14T09:16:32;22.60;66.00
12254;DHT22;6189;52.526;13.390;2023-06-14T09:19:20;22.70;66.20
12254;DHT22;6189;52.526;13.390;2023-06-14T09:22:06;22.90;66.40
12254;DHT22;6189;52.526;13.390;2023-06-14T09:24:57;22.80;64.90
12254;DHT22;6189;52.526;13.390;2023-06-14T09:27:42;22.90;65.80
12254;DHT22;6189;52.526;13.390;2023-06-14T09:30:27;23.00;65.30
12254;DHT22;6189;52.526;13.390;2023-06-14T09:33:16;23.10;64.80
12254;DHT22;6189;52.526;13.390;2023-06-14T09:36:02;23.20;65.70
12254;DHT22;6189;52.526;13.390;2023-06-14T09:38:56;23.20;65.00
12254;DHT22;6189;52.526;13.390;2023-06-14T09:41:43;23.20;65.00
12254;DHT22;6189;52.526;13.390;2023-06-14T09:44:28;23.30;65.50
12254;DHT22;6189;52.526;13.390;2023-06-14T09:47:14;23.30;65.10
12254;DHT22;6189;52.526;13.390;2023-06-14T09:50:00;23.40;65.20
12254;DHT22;6189;52.526;13.390;2023-06-14T09:52:45;23.40;64.90
12254;DHT22;6189;52.526;13.390;2023-06-14T09:55:34;23.40;64.90
12254;DHT22;6189;52.526;13.390;2023-06-14T09:58:21;23.40;64.90
12254;DHT22;6189;52.526;13.390;2023-06-14T10:01:08;23.50;64.00
12254;DHT22;6189;52.526;13.390;2023-06-14T10:03:55;23.50;64.60
12254;DHT22;6189;52.526;13.390;2023-06-14T10:06:40;23.50;64.10
12254;DHT22;6189;52.526;13.390;2023-06-14T10:09:27;23.50;63.70
12254;DHT22;6189;52.526;13.390;2023-06-14T10:12:13;23.60;64.20
12254;DHT22;6189;52.526;13.390;2023-06-14T10:15:07;23.60;63.80
12254;DHT22;6189;52.526;13.390;2023-06-14T10:17:54;23.60;63.20
12254;DHT22;6189;52.526;13.390;2023-06-14T10:20:42;23.60;63.40
12254;DHT22;6189;52.526;13.390;2023-06-14T10:23:31;23.60;64.00
12254;DHT22;6189;52.526;13.390;2023-06-14T10:26:19;23.60;63.40
12254;DHT22;6189;52.526;13.390;2023-06-14T10:29:06;23.60;63.20
12254;DHT22;6189;52.526;13.390;2023-06-14T10:31:56;23.60;63.20
12254;DHT22;6189;52.526;13.390;2023-06-14T10:34:42;23.60;63.50
12254;DHT22;6189;52.526;13.390;2023-06-14T10:37:27;23.60;62.40
12254;DHT22;6189;52.526;13.390;2023-06-14T10:40:19;23.70;64.10
12254;DHT22;6189;52.526;13.390;2023-06-14T10:43:21;23.70;63.10
12254;DHT22;6189;52.526;13.390;2023-06-14T10:46:16;23.70;63.30
12254;DHT22;6189;52.526;13.390;2023-06-14T10:49:03;23.70;62.50
12254;DHT22;6189;52.526;13.390;2023-06-14T10:51:49;23.60;60.70
12254;DHT22;6189;52.526;13.390;2023-06-14T10:54:36;23.70;61.00
12254;DHT22;6189;52.526;13.390;2023-06-14T10:57:21;23.70;60.90
12254;DHT22;6189;52.526;13.390;2023-06-14T11:00:07;23.70;61.00
12254;DHT22;6189;52.526;13.390;2023-06-14T11:06:12;23.90;61.70
12254;DHT22;6189;52.526;13.390;2023-06-14T11:12:14;23.70;61.10
12254;DHT22;6189;52.526;13.390;2023-06-14T11:15:00;23.80;61.80
12254;DHT22;6189;52.526;13.390;2023-06-14T11:17:50;23.90;62.00
12254;DHT22;6189;52.526;13.390;2023-06-14T11:20:37;24.10;61.80
12254;DHT22;6189;52.526;13.390;2023-06-14T11:23:24;24.30;61.00
12254;DHT22;6189;52.526;13.390;2023-06-14T11:26:09;24.50;60.10
12254;DHT22;6189;52.526;13.390;2023-06-14T11:28:55;24.60;60.40
12254;DHT22;6189;52.526;13.390;2023-06-14T11:31:43;24.80;59.60
12254;DHT22;6189;52.526;13.390;2023-06-14T11:34:28;24.90;59.10
12254;DHT22;6189;52.526;13.390;2023-06-14T11:37:13;25.00;58.00
12254;DHT22;6189;52.526;13.390;2023-06-14T11:40:00;25.00;57.60
12254;DHT22;6189;52.526;13.390;2023-06-14T11:42:47;25.00;58.20
12254;DHT22;6189;52.526;13.390;2023-06-14T11:45:32;25.20;57.80
12254;DHT22;6189;52.526;13.390;2023-06-14T11:48:18;25.20;57.00
12254;DHT22;6189;52.526;13.390;2023-06-14T11:51:03;24.90;55.80
12254;DHT22;6189;52.526;13.390;2023-06-14T11:53:48;24.50;56.70
12254;DHT22;6189;52.526;13.390;2023-06-14T11:56:36;24.40;57.10
12254;DHT22;6189;52.526;13.390;2023-06-14T11:59:21;24.60;57.90
12254;DHT22;6189;52.526;13.390;2023-06-14T12:02:07;24.90;57.20
12254;DHT22;6189;52.526;13.390;2023-06-14T12:04:52;24.30;56.30
12254;DHT22;6189;52.526;13.390;2023-06-14T12:07:38;23.80;57.70
12254;DHT22;6189;52.526;13.390;2023-06-14T12:10:25;24.20;59.20
12254;DHT22;6189;52.526;13.390;2023-06-14T12:13:12;24.50;57.70
12254;DHT22;6189;52.526;13.390;2023-06-14T12:15:57;24.90;57.70
12254;DHT22;6189;52.526;13.390;2023-06-14T12:18:42;25.40;56.20
12254;DHT22;6189;52.526;13.390;2023-06-14T12:21:29;25.70;56.30
12254;DHT22;6189;52.526;13.390;2023-06-14T12:24:17;26.10;54.40
12254;DHT22;6189;52.526;13.390;2023-06-14T12:27:03;26.30;52.70
12254;DHT22;6189;52.526;13.390;2023-06-14T12:29:59;26.50;52.00
12254;DHT22;6189;52.526;13.390;2023-06-14T12:32:44;26.70;51.60
12254;DHT22;6189;52.526;13.390;2023-06-14T12:35:30;26.90;51.20
12254;DHT22;6189;52.526;13.390;2023-06-14T12:38:16;27.10;50.20
12254;DHT22;6189;52.526;13.390;2023-06-14T12:41:01;27.30;49.70
12254;DHT22;6189;52.526;13.390;2023-06-14T12:43:47;27.40;49.90
12254;DHT22;6189;52.526;13.390;2023-06-14T12:46:33;27.50;52.40
12254;DHT22;6189;52.526;13.390;2023-06-14T12:49:19;27.50;52.30
12254;DHT22;6189;52.526;13.390;2023-06-14T12:52:05;27.50;50.80
12254;DHT22;6189;52.526;13.390;2023-06-14T12:54:50;27.40;49.60
12254;DHT22;6189;52.526;13.390;2023-06-14T12:57:36;27.10;47.80
12254;DHT22;6189;52.526;13.390;2023-06-14T13:00:22;27.30;49.00
12254;DHT22;6189;52.526;13.390;2023-06-14T13:03:11;27.20;48.30
12254;DHT22;6189;52.526;13.390;2023-06-14T13:05:56;27.10;49.10
12254;DHT22;6189;52.526;13.390;2023-06-14T13:08:42;27.20;49.30
12254;DHT22;6189;52.526;13.390;2023-06-14T13:11:27;27.30;48.90
12254;DHT22;6189;52.526;13.390;2023-06-14T13:14:12;27.10;47.40
12254;DHT22;6189;52.526;13.390;2023-06-14T13:16:58;26.80;47.70
12254;DHT22;6189;52.526;13.390;2023-06-14T13:19:44;26.90;48.40
12254;DHT22;6189;52.526;13.390;2023-06-14T13:22:30;26.80;48.00
12254;DHT22;6189;52.526;13.390;2023-06-14T13:25:15;27.00;48.60
12254;DHT22;6189;52.526;13.390;2023-06-14T13:28:01;27.00;48.20
12254;DHT22;6189;52.526;13.390;2023-06-14T13:30:46;27.00;47.20
12254;DHT22;6189;52.526;13.390;2023-06-14T13:33:31;26.80;47.00
12254;DHT22;6189;52.526;13.390;2023-06-14T13:36:18;26.80;48.20
12254;DHT22;6189;52.526;13.390;2023-06-14T13:39:03;27.00;47.60
12254;DHT22;6189;52.526;13.390;2023-06-14T13:41:49;27.10;46.90
12254;DHT22;6189;52.526;13.390;2023-06-14T13:44:34;27.20;47.00
12254;DHT22;6189;52.526;13.390;2023-06-14T13:47:19;27.30;46.50
12254;DHT22;6189;52.526;13.390;2023-06-14T13:50:05;27.20;46.70
12254;DHT22;6189;52.526;13.390;2023-06-14T13:52:51;27.30;47.00
12254;DHT22;6189;52.526;13.390;2023-06-14T13:55:37;27.30;46.90
12254;DHT22;6189;52.526;13.390;2023-06-14T13:58:22;27.40;46.50
12254;DHT22;6189;52.526;13.390;2023-06-14T14:01:07;27.30;47.20
12254;DHT22;6189;52.526;13.390;2023-06-14T14:03:53;27.40;46.20
12254;DHT22;6189;52.526;13.390;2023-06-14T14:06:38;27.30;45.80
12254;DHT22;6189;52.526;13.390;2023-06-14T14:09:25;27.40;46.50
12254;DHT22;6189;52.526;13.390;2023-06-14T14:12:10;27.40;46.10
12254;DHT22;6189;52.526;13.390;2023-06-14T14:14:56;27.30;46.00
12254;DHT22;6189;52.526;13.390;2023-06-14T14:17:41;27.40;45.30
12254;DHT22;6189;52.526;13.390;2023-06-14T14:20:27;27.10;45.70
12254;DHT22;6189;52.526;13.390;2023-06-14T14:23:12;27.30;46.40
12254;DHT22;6189;52.526;13.390;2023-06-14T14:25:59;27.10;45.00
12254;DHT22;6189;52.526;13.390;2023-06-14T14:28:47;27.10;44.90
12254;DHT22;6189;52.526;13.390;2023-06-14T14:31:32;27.20;45.10
12254;DHT22;6189;52.526;13.390;2023-06-14T14:34:17;27.30;45.40
12254;DHT22;6189;52.526;13.390;2023-06-14T14:37:03;27.30;46.20
12254;DHT22;6189;52.526;13.390;2023-06-14T14:39:49;27.30;47.20
12254;DHT22;6189;52.526;13.390;2023-06-14T14:42:35;27.20;47.50
12254;DHT22;6189;52.526;13.390;2023-06-14T14:45:21;27.20;47.80
12254;DHT22;6189;52.526;13.390;2023-06-14T14:48:06;27.00;47.80
12254;DHT22;6189;52.526;13.390;2023-06-14T14:50:51;26.80;48.10
12254;DHT22;6189;52.526;13.390;2023-06-14T14:53:36;26.80;48.10
12254;DHT22;6189;52.526;13.390;2023-06-14T14:56:22;26.70;48.30
12254;DHT22;6189;52.526;13.390;2023-06-14T14:59:08;26.60;48.40
12254;DHT22;6189;52.526;13.390;2023-06-14T15:01:54;26.50;48.60
12254;DHT22;6189;52.526;13.390;2023-06-14T15:04:39;26.50;48.60
12254;DHT22;6189;52.526;13.390;2023-06-14T15:07:24;26.50;48.70
12254;DHT22;6189;52.526;13.390;2023-06-14T15:10:09;26.40;48.70
12254;DHT22;6189;52.526;13.390;2023-06-14T15:12:55;26.40;48.80
12254;DHT22;6189;52.526;13.390;2023-06-14T15:15:42;26.30;49.00
12254;DHT22;6189;52.526;13.390;2023-06-14T15:18:27;26.20;49.20
12254;DHT22;6189;52.526;13.390;2023-06-14T15:21:12;26.20;49.70
12254;DHT22;6189;52.526;13.390;2023-06-14T15:23:58;26.10;49.20
12254;DHT22;6189;52.526;13.390;2023-06-14T15:26:43;26.10;49.50
12254;DHT22;6189;52.526;13.390;2023-06-14T15:29:28;26.10;49.40
12254;DHT22;6189;52.526;13.390;2023-06-14T15:32:15;26.00;49.40
12254;DHT22;6189;52.526;13.390;2023-06-14T15:35:01;26.00;49.40
12254;DHT22;6189;52.526;13.390;2023-06-14T15:37:47;26.00;49.00
12254;DHT22;6189;52.526;13.390;2023-06-14T15:40:32;25.90;49.10
12254;DHT22;6189;52.526;13.390;2023-06-14T15:43:17;25.90;49.00
12254;DHT22;6189;52.526;13.390;2023-06-14T15:46:03;25.90;49.00
12254;DHT22;6189;52.526;13.390;2023-06-14T15:48:49;25.90;49.50
12254;DHT22;6189;52.526;13.390;2023-06-14T15:51:35;25.80;49.40
12254;DHT22;6189;52.526;13.390;2023-06-14T15:54:20;25.80;49.70
12254;DHT22;6189;52.526;13.390;2023-06-14T15:57:05;25.80;49.90
12254;DHT22;6189;52.526;13.390;2023-06-14T15:59:52;25.80;49.80
12254;DHT22;6189;52.526;13.390;2023-06-14T16:02:37;25.80;50.10
12254;DHT22;6189;52.526;13.390;2023-06-14T16:05:24;25.70;49.50
12254;DHT22;6189;52.526;13.390;2023-06-14T16:08:09;25.80;49.50
12254;DHT22;6189;52.526;13.390;2023-06-14T16:10:54;25.80;49.90
12254;DHT22;6189;52.526;13.390;2023-06-14T16:13:41;25.70;49.20
12254;DHT22;6189;52.526;13.390;2023-06-14T16:16:26;25.70;49.30
12254;DHT22;6189;52.526;13.390;2023-06-14T16:19:12;25.70;49.70
12254;DHT22;6189;52.526;13.390;2023-06-14T16:21:58;25.70;49.80
12254;DHT22;6189;52.526;13.390;2023-06-14T16:24:44;25.70;50.00
12254;DHT22;6189;52.526;13.390;2023-06-14T16:27:29;25.70;49.90
12254;DHT22;6189;52.526;13.390;2023-06-14T16:30:15;25.70;50.20
12254;DHT22;6189;52.526;13.390;2023-06-14T16:33:00;25.60;50.60
12254;DHT22;6189;52.526;13.390;2023-06-14T16:35:45;25.60;50.70
12254;DHT22;6189;52.526;13.390;2023-06-14T16:38:32;25.60;50.90
12254;DHT22;6189;52.526;13.390;2023-06-14T16:41:18;25.60;51.50
12254;DHT22;6189;52.526;13.390;2023-06-14T16:44:03;25.60;50.30
12254;DHT22;6189;52.526;13.390;2023-06-14T16:46:48;25.50;49.90
12254;DHT22;6189;52.526;13.390;2023-06-14T16:49:34;25.50;50.50
12254;DHT22;6189;52.526;13.390;2023-06-14T16:52:19;25.50;50.30
12254;DHT22;6189;52.526;13.390;2023-06-14T16:55:07;25.50;50.60
12254;DHT22;6189;52.526;13.390;2023-06-14T16:57:52;25.50;50.40
12254;DHT22;6189;52.526;13.390;2023-06-14T17:00:38;25.40;50.50
12254;DHT22;6189;52.526;13.390;2023-06-14T17:03:23;25.40;50.70
12254;DHT22;6189;52.526;13.390;2023-06-14T17:06:09;25.30;50.60
12254;DHT22;6189;52.526;13.390;2023-06-14T17:08:54;25.30;50.90
12254;DHT22;6189;52.526;13.390;2023-06-14T17:11:41;25.30;51.00
12254;DHT22;6189;52.526;13.390;2023-06-14T17:14:26;25.30;51.20
12254;DHT22;6189;52.526;13.390;2023-06-14T17:17:12;25.20;51.20
12254;DHT22;6189;52.526;13.390;2023-06-14T17:19:57;25.10;51.30
12254;DHT22;6189;52.526;13.390;2023-06-14T17:22:42;25.20;51.40
12254;DHT22;6189;52.526;13.390;2023-06-14T17:25:28;25.10;51.30
12254;DHT22;6189;52.526;13.390;2023-06-14T17:28:15;25.10;51.60
12254;DHT22;6189;52.526;13.390;2023-06-14T17:31:00;24.90;51.50
12254;DHT22;6189;52.526;13.390;2023-06-14T17:33:46;25.10;51.70
12254;DHT22;6189;52.526;13.390;2023-06-14T17:36:31;25.20;51.50